Time;durP1;ratioP1;P1;durP2;ratioP2;P2;SDS_P1;SDS_P2;PMS_P1;PMS_P2;Temp;Humidity;BMP_temperature;BMP_pressure;BME280_temperature;BME280_humidity;BME280_pressure;Samples;Min_cycle;Max_cycle;Signal;HPM_P1;HPM_P2
2023/12/23 00:01:30;;;;;;;0.50;0.50;;;;;;;1.92;91.40;97530.78;5073165;28;20137;-66
2023/12/23 00:04:01;;;;;;;0.40;0.40;;;;;;;1.90;91.69;97572.69;5073313;28;20052;-66
2023/12/23 00:06:30;;;;;;;0.40;0.40;;;;;;;1.87;91.63;97571.00;5073518;28;20486;-67
2023/12/23 00:08:59;;;;;;;0.57;0.57;;;;;;;1.90;92.11;97575.19;5073551;28;20033;-67
2023/12/23 00:11:27;;;;;;;0.60;0.60;;;;;;;1.92;91.32;97568.50;5073718;28;20071;-67
2023/12/23 00:13:56;;;;;;;0.50;0.50;;;;;;;1.94;91.29;97562.59;5073737;28;20285;-67
2023/12/23 00:16:27;;;;;;;0.35;0.35;;;;;;;1.94;91.46;97556.78;5072146;28;20044;-66
2023/12/23 00:18:57;;;;;;;0.40;0.40;;;;;;;1.91;92.45;97557.59;5073464;28;20048;-66
2023/12/23 00:21:27;;;;;;;0.50;0.50;;;;;;;1.93;91.83;97550.06;5073122;28;20045;-67
2023/12/23 00:23:56;;;;;;;0.40;0.40;;;;;;;1.90;92.19;97545.84;5073138;28;20048;-67
2023/12/23 00:26:25;;;;;;;0.27;0.27;;;;;;;1.87;92.36;97540.00;5072059;28;20473;-66
2023/12/23 00:28:54;;;;;;;0.82;0.82;;;;;;;1.92;92.73;97548.41;5071331;28;20814;-67
2023/12/23 00:31:23;;;;;;;0.50;0.50;;;;;;;1.90;92.38;97550.88;5073590;28;20056;-66
2023/12/23 00:33:53;;;;;;;0.98;0.98;;;;;;;1.94;93.13;97542.50;5073091;28;20032;-67
2023/12/23 00:36:22;;;;;;;0.40;0.40;;;;;;;1.98;92.23;97543.34;5073457;28;20527;-67
2023/12/23 00:38:52;;;;;;;0.50;0.50;;;;;;;2.00;92.23;97549.19;5072898;28;20045;-66
2023/12/23 00:41:22;;;;;;;0.43;0.43;;;;;;;1.94;93.16;97546.72;5073499;28;20277;-67
2023/12/23 00:43:51;;;;;;;0.30;0.30;;;;;;;1.93;92.32;97570.16;5073176;28;20044;-67
2023/12/23 00:46:20;;;;;;;0.30;0.30;;;;;;;1.92;92.79;97596.97;5071732;28;20033;-66
2023/12/23 00:48:49;;;;;;;0.40;0.40;;;;;;;1.92;92.61;97608.75;5072754;28;20044;-66
2023/12/23 00:51:18;;;;;;;0.30;0.30;;;;;;;1.91;93.34;97612.09;5072826;28;20124;-67
2023/12/23 00:53:47;;;;;;;0.40;0.40;;;;;;;1.94;92.64;97625.47;5071958;28;20128;-67
2023/12/23 00:56:21;;;;;;;0.45;0.45;;;;;;;1.95;93.39;97631.34;5071631;28;20376;-66
2023/12/23 00:58:50;;;;;;;0.40;0.40;;;;;;;1.94;93.25;97628.00;5072737;28;20560;-65
2023/12/23 01:01:19;;;;;;;0.52;0.52;;;;;;;1.96;92.99;97635.56;5071689;28;20052;-66
2023/12/23 01:03:48;;;;;;;0.50;0.50;;;;;;;1.96;93.56;97633.03;5076588;28;20028;-66
2023/12/23 01:06:17;;;;;;;0.40;0.40;;;;;;;1.96;93.38;97625.50;5076644;28;20032;-66
2023/12/23 01:08:46;;;;;;;0.25;0.25;;;;;;;1.98;93.57;97623.81;5076395;28;20086;-66
2023/12/23 01:11:15;;;;;;;0.40;0.40;;;;;;;1.98;94.03;97616.28;5076181;28;20139;-66
2023/12/23 01:13:45;;;;;;;0.40;0.40;;;;;;;2.02;93.96;97606.22;5075016;28;20511;-66
2023/12/23 01:16:14;;;;;;;0.40;0.40;;;;;;;2.07;93.85;97608.72;5075197;28;20449;-66
2023/12/23 01:18:43;;;;;;;0.47;0.47;;;;;;;2.13;94.01;97603.69;5075147;28;20525;-67
2023/12/23 01:21:12;;;;;;;0.40;0.40;;;;;;;2.16;93.20;97605.38;5074919;28;20115;-67
2023/12/23 01:23:41;;;;;;;0.50;0.50;;;;;;;2.18;93.16;97613.75;5076217;28;20494;-67
2023/12/23 01:26:10;;;;;;;0.37;0.37;;;;;;;2.21;94.04;97632.19;5075976;28;20037;-67
2023/12/23 01:28:38;;;;;;;0.50;0.50;;;;;;;2.22;93.23;97618.78;5091415;28;20786;-67
2023/12/23 01:31:09;;;;;;;0.50;0.50;;;;;;;2.23;93.43;97630.50;5076126;28;20275;-68
2023/12/23 01:33:38;;;;;;;1.85;1.10;;;;;;;2.24;93.09;97642.25;5076114;28;20560;-67
2023/12/23 01:36:07;;;;;;;0.30;0.30;;;;;;;2.25;93.63;97654.00;5075383;28;20126;-67
2023/12/23 01:38:37;;;;;;;0.40;0.40;;;;;;;2.24;93.39;97644.75;5075902;28;20043;-67
2023/12/23 01:41:06;;;;;;;0.40;0.40;;;;;;;2.25;93.73;97638.91;5075677;28;20124;-67
2023/12/23 01:43:35;;;;;;;0.40;0.40;;;;;;;2.22;93.52;97633.88;5075619;28;20040;-67
2023/12/23 01:46:04;;;;;;;0.30;0.30;;;;;;;2.21;93.19;97644.75;5091471;28;20503;-67
2023/12/23 01:48:39;;;;;;;0.50;0.50;;;;;;;2.17;93.48;97660.69;5075719;28;20052;-67
2023/12/23 01:51:09;;;;;;;0.30;0.30;;;;;;;2.18;92.87;97672.44;5075687;28;20094;-66
2023/12/23 01:53:38;;;;;;;0.30;0.30;;;;;;;2.13;93.36;97684.19;5075449;28;20090;-67
2023/12/23 01:56:09;;;;;;;0.55;0.55;;;;;;;2.11;92.95;97680.84;5075300;28;20130;-66
2023/12/23 01:58:38;;;;;;;0.40;0.40;;;;;;;2.03;93.05;97695.09;5075328;28;20049;-67
2023/12/23 02:01:07;;;;;;;0.40;0.40;;;;;;;2.04;92.69;97684.16;5075019;28;20049;-67
2023/12/23 02:03:38;;;;;;;0.30;0.30;;;;;;;1.98;93.66;97701.78;5076162;28;20099;-67
2023/12/23 02:06:08;;;;;;;0.50;0.50;;;;;;;1.93;93.63;97695.91;5057654;28;20056;-66
2023/12/23 02:08:37;;;;;;;0.50;0.50;;;;;;;1.90;93.83;97680.81;5075130;28;20131;-67
2023/12/23 02:11:06;;;;;;;0.47;0.47;;;;;;;1.86;93.96;97687.53;5075004;28;20131;-66
2023/12/23 02:13:42;;;;;;;0.40;0.40;;;;;;;1.81;93.20;97663.19;5073998;28;20678;-67
2023/12/23 02:16:13;;;;;;;0.50;0.50;;;;;;;1.76;93.20;97659.84;5075073;28;20154;-67
2023/12/23 02:18:45;;;;;;;0.40;0.40;;;;;;;1.76;93.43;97650.63;5075507;28;20056;-67
2023/12/23 02:21:15;;;;;;;0.30;0.30;;;;;;;1.78;93.86;97646.44;5073641;28;20052;-67
2023/12/23 02:23:45;;;;;;;0.50;0.50;;;;;;;1.78;93.34;97645.59;5073830;28;20052;-67
2023/12/23 02:26:20;;;;;;;0.50;0.50;;;;;;;1.79;93.65;97643.09;5075089;28;20125;-67
2023/12/23 02:28:52;;;;;;;0.30;0.30;;;;;;;1.82;94.27;97642.25;5090335;28;20045;-67
2023/12/23 02:31:22;;;;;;;0.50;0.50;;;;;;;1.80;93.63;97654.00;5074934;28;20072;-67
2023/12/23 02:33:52;;;;;;;0.40;0.40;;;;;;;1.79;94.01;97652.31;5074611;28;20045;-67
2023/12/23 02:36:23;;;;;;;0.50;0.50;;;;;;;1.76;93.66;97657.31;5074511;28;20048;-66
2023/12/23 02:38:52;;;;;;;1.02;0.98;;;;;;;1.81;93.75;97665.72;5073647;28;20041;-66
2023/12/23 02:41:21;;;;;;;0.50;0.50;;;;;;;1.82;93.37;97677.47;5073456;28;20128;-66
2023/12/23 02:43:50;;;;;;;1.53;1.43;;;;;;;1.81;94.27;97675.78;5073514;28;20037;-66
2023/12/23 02:46:19;;;;;;;0.40;0.40;;;;;;;1.83;94.02;97684.16;5073326;28;20277;-66
2023/12/23 02:48:48;;;;;;;0.50;0.50;;;;;;;1.83;94.37;97684.16;5074611;28;20627;-66
2023/12/23 02:51:17;;;;;;;0.50;0.50;;;;;;;1.83;94.40;97685.00;5074224;28;20108;-67
2023/12/23 02:53:47;;;;;;;0.75;0.75;;;;;;;1.85;94.21;97693.38;5073280;28;20142;-67
2023/12/23 02:56:16;;;;;;;0.40;0.40;;;;;;;1.91;94.30;97692.56;5074194;28;20052;-67
2023/12/23 02:58:45;;;;;;;0.30;0.30;;;;;;;1.96;93.90;97675.78;5074084;28;20047;-66
2023/12/23 03:01:14;;;;;;;0.52;0.52;;;;;;;1.98;94.08;97679.16;5056039;28;20053;-66
2023/12/23 03:03:43;;;;;;;0.40;0.40;;;;;;;1.98;93.67;97684.19;5074074;28;20040;-67
2023/12/23 03:06:14;;;;;;;0.50;0.50;;;;;;;2.00;93.75;97672.44;5090271;28;20071;-67
2023/12/23 03:08:43;;;;;;;0.45;0.45;;;;;;;2.01;94.48;97674.97;5074220;28;20135;-66
2023/12/23 03:11:13;;;;;;;0.40;0.40;;;;;;;2.08;94.55;97659.88;5072597;28;20067;-66
2023/12/23 03:13:42;;;;;;;0.52;0.52;;;;;;;2.11;94.07;97647.28;5074000;28;20059;-66
2023/12/23 03:16:17;;;;;;;0.40;0.40;;;;;;;2.15;94.59;97639.75;5073877;28;20057;-67
2023/12/23 03:18:47;;;;;;;0.40;0.40;;;;;;;2.20;93.53;97643.09;5072555;28;20495;-67
2023/12/23 03:21:17;;;;;;;0.22;0.22;;;;;;;2.25;93.82;97643.09;5073663;28;20040;-67
2023/12/23 03:23:47;;;;;;;0.32;0.32;;;;;;;2.27;93.18;97647.28;5073923;28;20451;-67
2023/12/23 03:26:17;;;;;;;0.40;0.40;;;;;;;2.29;93.73;97650.63;5072576;28;20029;-67
2023/12/23 03:28:46;;;;;;;0.40;0.40;;;;;;;2.28;93.07;97633.84;5072530;28;20364;-67
2023/12/23 03:31:15;;;;;;;0.38;0.38;;;;;;;2.35;93.39;97635.50;5073517;28;20127;-67
2023/12/23 03:33:43;;;;;;;0.30;0.30;;;;;;;2.37;92.15;97656.50;5073792;28;20501;-67
2023/12/23 03:36:12;;;;;;;0.40;0.40;;;;;;;2.41;92.61;97655.66;5073636;28;20499;-66
2023/12/23 03:38:41;;;;;;;0.50;0.50;;;;;;;2.44;92.12;97670.75;5072591;28;20041;-67
2023/12/23 03:41:11;;;;;;;0.30;0.30;;;;;;;2.45;91.26;97679.97;5073489;28;20043;-67
2023/12/23 03:43:41;;;;;;;0.40;0.40;;;;;;;2.46;91.19;97693.41;5073476;28;20051;-67
2023/12/23 03:46:12;;;;;;;0.38;0.38;;;;;;;2.48;91.29;97686.66;5073773;28;20049;-67
2023/12/23 03:48:41;;;;;;;0.40;0.40;;;;;;;2.50;90.34;97690.88;5073701;28;20392;-67
2023/12/23 03:51:10;;;;;;;0.30;0.30;;;;;;;2.51;90.52;97685.00;5073968;28;20347;-67
2023/12/23 03:53:38;;;;;;;0.47;0.47;;;;;;;2.55;89.94;97698.41;5073675;28;20115;-67
2023/12/23 03:56:07;;;;;;;0.55;0.55;;;;;;;2.57;90.18;97695.06;5073367;28;20041;-68
2023/12/23 03:58:36;;;;;;;0.50;0.50;;;;;;;2.60;89.84;97702.59;5072403;28;20048;-67
2023/12/23 04:01:06;;;;;;;0.50;0.50;;;;;;;2.61;88.94;97698.41;5088662;28;20486;-67
2023/12/23 04:03:36;;;;;;;0.40;0.40;;;;;;;2.63;88.73;97707.66;5072711;28;20044;-67
2023/12/23 04:06:05;;;;;;;0.60;0.60;;;;;;;2.63;88.80;97712.69;5073304;28;20036;-67
2023/12/23 04:08:35;;;;;;;0.50;0.50;;;;;;;2.65;88.32;97711.00;5073638;28;20555;-67
2023/12/23 04:11:04;;;;;;;0.40;0.40;;;;;;;2.56;88.12;97690.03;5072070;28;20078;-67
2023/12/23 04:13:33;;;;;;;0.63;0.63;;;;;;;2.68;88.32;97716.03;5073505;28;20147;-67
2023/12/23 04:16:04;;;;;;;0.43;0.43;;;;;;;2.71;88.13;97695.84;5073441;28;20045;-67
2023/12/23 04:18:35;;;;;;;0.50;0.50;;;;;;;2.76;87.19;97717.69;5072554;28;20811;-66
2023/12/23 04:21:09;;;;;;;0.30;0.30;;;;;;;2.79;87.44;97723.56;5073136;28;20071;-67
2023/12/23 04:23:42;;;;;;;0.40;0.40;;;;;;;2.81;86.89;97726.09;5073519;28;20522;-66
2023/12/23 04:26:13;;;;;;;0.40;0.40;;;;;;;2.82;86.48;97728.59;5072171;28;20066;-66
2023/12/23 04:28:43;;;;;;;0.40;0.40;;;;;;;2.85;86.38;97737.81;5072215;28;20052;-66
2023/12/23 04:31:12;;;;;;;0.40;0.40;;;;;;;2.85;86.22;97735.31;5088774;28;20037;-67
2023/12/23 04:33:43;;;;;;;0.30;0.30;;;;;;;2.86;85.94;97745.38;5073054;28;20036;-67
2023/12/23 04:36:13;;;;;;;0.40;0.40;;;;;;;2.88;85.09;97757.97;5073801;28;20044;-66
2023/12/23 04:38:42;;;;;;;0.40;0.40;;;;;;;2.92;85.60;97760.47;5076075;28;20122;-67
2023/12/23 04:41:11;;;;;;;0.50;0.50;;;;;;;2.94;84.87;97752.91;5059374;28;20048;-66
2023/12/23 04:43:42;;;;;;;0.40;0.40;;;;;;;2.98;84.64;97769.69;5077127;28;20552;-66
2023/12/23 04:46:11;;;;;;;0.38;0.38;;;;;;;2.96;84.87;97773.91;5077131;28;20033;-66
2023/12/23 04:48:40;;;;;;;0.50;0.50;;;;;;;2.97;84.31;97784.00;5076649;28;20530;-67
2023/12/23 04:51:11;;;;;;;0.50;0.50;;;;;;;2.97;84.71;97786.50;5076719;28;20040;-66
2023/12/23 04:53:40;;;;;;;0.50;0.50;;;;;;;2.98;84.37;97789.84;5075806;28;20048;-66
2023/12/23 04:56:10;;;;;;;0.30;0.30;;;;;;;3.00;83.65;97808.34;5075648;28;20033;-66
2023/12/23 04:58:39;;;;;;;0.50;0.50;;;;;;;3.00;84.30;97793.22;5076837;28;20090;-66
2023/12/23 05:01:07;;;;;;;0.50;0.50;;;;;;;2.96;83.80;97796.56;5075294;28;20052;-66
2023/12/23 05:03:36;;;;;;;0.50;0.50;;;;;;;3.04;83.15;97810.00;5076758;28;20041;-66
2023/12/23 05:06:06;;;;;;;0.40;0.40;;;;;;;3.06;83.16;97813.34;5075542;28;20032;-66
2023/12/23 05:08:37;;;;;;;0.40;0.40;;;;;;;3.05;83.29;97821.75;5076599;28;20033;-66
2023/12/23 05:11:08;;;;;;;0.40;0.40;;;;;;;3.03;82.48;97828.47;5076265;28;20048;-66
2023/12/23 05:13:37;;;;;;;0.40;0.40;;;;;;;3.04;82.88;97823.44;5075075;28;20037;-66
2023/12/23 05:16:07;;;;;;;0.30;0.30;;;;;;;3.03;82.33;97823.44;5058075;28;20067;-66
2023/12/23 05:18:36;;;;;;;0.40;0.40;;;;;;;3.05;81.77;97830.16;5075213;28;20063;-67
2023/12/23 05:21:05;;;;;;;0.40;0.40;;;;;;;3.06;81.46;97843.59;5076415;28;20067;-66
2023/12/23 05:23:36;;;;;;;0.52;0.52;;;;;;;3.06;81.22;97838.56;5075183;28;20509;-66
2023/12/23 05:26:05;;;;;;;0.50;0.50;;;;;;;3.03;80.74;97858.69;5074950;28;20376;-66
2023/12/23 05:28:34;;;;;;;0.50;0.50;;;;;;;3.12;79.92;97881.41;5075036;28;20094;-66
2023/12/23 05:31:03;;;;;;;0.30;0.30;;;;;;;3.14;79.23;97887.28;5074993;28;20135;-66
2023/12/23 05:33:31;;;;;;;0.50;0.50;;;;;;;3.17;78.41;97887.25;5075024;28;20040;-66
2023/12/23 05:36:01;;;;;;;0.35;0.35;;;;;;;3.21;77.33;97904.06;5076269;28;20032;-66
2023/12/23 05:38:30;;;;;;;0.65;0.65;;;;;;;3.21;77.04;97889.78;5075867;28;20041;-67
2023/12/23 05:41:01;;;;;;;0.50;0.50;;;;;;;3.18;76.82;97914.13;5075985;28;20391;-66
2023/12/23 05:43:30;;;;;;;0.40;0.40;;;;;;;3.15;77.00;97919.16;5075775;28;20037;-66
2023/12/23 05:45:59;;;;;;;0.40;0.40;;;;;;;3.13;76.33;97953.63;5075678;28;20036;-66
2023/12/23 05:48:28;;;;;;;0.40;0.40;;;;;;;3.17;75.38;97927.56;5075425;28;20285;-66
2023/12/23 05:50:57;;;;;;;0.40;0.40;;;;;;;3.21;74.77;97947.75;5075567;28;20052;-66
2023/12/23 05:53:26;;;;;;;0.73;0.73;;;;;;;3.23;74.19;97947.75;5075848;28;20131;-66
2023/12/23 05:55:54;;;;;;;0.50;0.50;;;;;;;3.19;73.47;97961.19;5075524;28;20045;-66
2023/12/23 05:58:25;;;;;;;0.50;0.50;;;;;;;3.14;73.66;98004.00;5075450;28;20376;-66
2023/12/23 06:00:53;;;;;;;0.28;0.28;;;;;;;3.13;73.45;97971.25;5075360;28;20057;-66
2023/12/23 06:03:22;;;;;;;0.30;0.30;;;;;;;3.10;73.94;97981.31;5075628;28;20040;-66
2023/12/23 06:05:51;;;;;;;1.02;1.00;;;;;;;3.10;73.74;97976.28;5075611;28;20041;-67
2023/12/23 06:08:23;;;;;;;0.43;0.43;;;;;;;3.00;74.52;97994.78;5075910;28;20558;-66
2023/12/23 06:10:52;;;;;;;0.50;0.50;;;;;;;3.00;74.18;97985.50;5075387;28;20045;-66
2023/12/23 06:13:28;;;;;;;0.40;0.40;;;;;;;2.99;74.22;97990.56;5075400;28;20048;-66
2023/12/23 06:15:57;;;;;;;0.25;0.25;;;;;;;2.99;73.61;98005.66;5075451;28;20044;-66
2023/12/23 06:18:26;;;;;;;0.20;0.20;;;;;;;3.00;72.86;98017.44;5075272;28;20040;-66
2023/12/23 06:20:55;;;;;;;0.25;0.25;;;;;;;3.01;72.86;98029.19;5074977;28;20048;-66
2023/12/23 06:23:24;;;;;;;0.33;0.33;;;;;;;3.00;72.22;98032.56;5074788;28;20482;-66
2023/12/23 06:25:52;;;;;;;0.40;0.40;;;;;;;2.99;72.38;98034.22;5074039;28;20036;-66
2023/12/23 06:28:21;;;;;;;0.40;0.40;;;;;;;2.97;72.20;98042.63;5074898;28;20068;-67
2023/12/23 06:30:51;;;;;;;0.32;0.32;;;;;;;2.87;70.60;98014.03;5090755;28;20033;-65
2023/12/23 06:33:20;;;;;;;0.40;0.40;;;;;;;3.04;70.10;98031.72;5074706;28;20131;-66
2023/12/23 06:35:49;;;;;;;0.65;0.65;;;;;;;3.02;69.64;98054.41;5074934;28;20132;-66
2023/12/23 06:38:19;;;;;;;0.40;0.40;;;;;;;3.05;68.72;98053.53;5074939;28;20047;-66
2023/12/23 06:40:48;;;;;;;1.88;1.70;;;;;;;3.02;69.27;98069.53;5075082;28;20366;-65
2023/12/23 06:43:17;;;;;;;0.40;0.40;;;;;;;3.03;69.04;98080.41;5074784;28;20395;-66
2023/12/23 06:46:09;;;;;;;0.40;0.40;;;;;;;3.01;69.25;98082.94;5073471;28;20051;-66
2023/12/23 06:48:38;;;;;;;0.40;0.40;;;;;;;2.97;69.64;98096.38;5074668;28;20047;-66
2023/12/23 06:51:08;;;;;;;0.40;0.40;;;;;;;2.99;69.26;98094.69;5074621;28;20123;-66
2023/12/23 06:53:37;;;;;;;0.40;0.40;;;;;;;3.04;68.60;98103.13;5074277;28;20139;-66
2023/12/23 06:56:06;;;;;;;0.40;0.40;;;;;;;3.05;69.17;98103.94;5074298;28;20050;-66
2023/12/23 06:58:35;;;;;;;0.30;0.30;;;;;;;3.03;68.64;98101.41;5074681;28;20440;-66
2023/12/23 07:01:04;;;;;;;0.47;0.47;;;;;;;3.00;68.46;98121.56;5073664;28;20495;-67
2023/12/23 07:03:35;;;;;;;0.40;0.40;;;;;;;3.02;69.05;98134.19;5074432;28;20307;-67
2023/12/23 07:06:04;;;;;;;0.40;0.40;;;;;;;3.04;68.06;98152.66;5074149;28;20063;-67
2023/12/23 07:08:34;;;;;;;0.50;0.50;;;;;;;3.05;67.15;98134.16;5074372;28;20395;-66
2023/12/23 07:11:03;;;;;;;0.50;0.50;;;;;;;3.06;67.72;98151.84;5073979;28;20052;-67
2023/12/23 07:13:32;;;;;;;0.50;0.50;;;;;;;3.04;67.38;98147.63;5072765;28;20098;-67
2023/12/23 07:16:02;;;;;;;0.40;0.40;;;;;;;3.02;67.65;98150.16;5073922;28;20158;-68
2023/12/23 07:18:31;;;;;;;0.40;0.40;;;;;;;3.09;67.61;98168.66;5073914;28;20066;-67
2023/12/23 07:21:02;;;;;;;0.50;0.50;;;;;;;3.08;67.25;98182.06;5073782;28;20060;-67
2023/12/23 07:23:31;;;;;;;0.40;0.40;;;;;;;3.02;67.98;98189.63;5074658;28;20517;-68
2023/12/23 07:26:00;;;;;;;0.50;0.50;;;;;;;3.08;67.76;98199.72;5074132;28;20123;-67
2023/12/23 07:28:29;;;;;;;0.60;0.60;;;;;;;3.08;67.30;98209.78;5073726;28;20143;-68
2023/12/23 07:30:58;;;;;;;0.45;0.45;;;;;;;3.07;67.09;98203.91;5073808;28;20041;-68
2023/12/23 07:33:27;;;;;;;0.50;0.50;;;;;;;3.10;66.83;98216.53;5073637;28;20062;-67
2023/12/23 07:35:56;;;;;;;0.30;0.30;;;;;;;3.10;67.33;98210.63;5091768;28;20194;-67
2023/12/23 07:38:26;;;;;;;0.40;0.40;;;;;;;3.11;67.97;98214.84;5093449;28;20036;-68
2023/12/23 07:40:55;;;;;;;0.40;0.40;;;;;;;3.11;67.27;98229.97;5093867;28;20052;-68
2023/12/23 07:43:24;;;;;;;0.40;0.40;;;;;;;3.13;67.83;98224.09;5094034;28;20105;-68
2023/12/23 07:45:53;;;;;;;0.40;0.40;;;;;;;3.14;67.59;98235.03;5093569;28;20265;-68
2023/12/23 07:48:22;;;;;;;0.43;0.43;;;;;;;3.04;67.27;98233.28;5094071;28;20292;-68
2023/12/23 07:50:51;;;;;;;0.40;0.40;;;;;;;3.16;67.14;98244.28;5093694;28;20457;-68
2023/12/23 07:53:19;;;;;;;0.30;0.30;;;;;;;3.19;67.01;98253.53;5093760;28;20040;-68
2023/12/23 07:55:50;;;;;;;0.40;0.40;;;;;;;3.21;67.66;98267.00;5092670;28;20036;-68
2023/12/23 07:58:19;;;;;;;0.30;0.30;;;;;;;3.22;67.72;98261.94;5094111;28;20386;-67
2023/12/23 08:00:47;;;;;;;0.50;0.50;;;;;;;3.23;67.82;98260.28;5093151;28;20048;-67
2023/12/23 08:03:16;;;;;;;0.40;0.40;;;;;;;3.25;67.91;98263.66;5093996;28;20079;-68
2023/12/23 08:05:45;;;;;;;0.47;0.47;;;;;;;3.26;67.73;98270.38;5093349;28;20303;-68
2023/12/23 08:08:14;;;;;;;0.30;0.30;;;;;;;3.27;67.55;98260.31;5093675;28;20047;-67
2023/12/23 08:10:43;;;;;;;0.40;0.40;;;;;;;3.27;67.41;98261.97;5093419;28;20052;-68
2023/12/23 08:13:13;;;;;;;0.40;0.40;;;;;;;3.30;67.37;98251.91;5097104;28;20075;-68
2023/12/23 08:15:41;;;;;;;0.40;0.40;;;;;;;3.30;68.04;98251.91;5097485;28;20043;-67
2023/12/23 08:18:10;;;;;;;0.55;0.55;;;;;;;3.34;67.58;98263.69;5097420;28;20072;-68
2023/12/23 08:20:39;;;;;;;0.30;0.30;;;;;;;3.35;67.93;98266.22;5097292;28;20055;-68
2023/12/23 08:23:08;;;;;;;0.45;0.45;;;;;;;3.37;67.62;98258.66;5098146;28;20054;-68
2023/12/23 08:25:37;;;;;;;0.50;0.50;;;;;;;3.39;67.94;98262.03;5097238;28;20042;-68
2023/12/23 08:28:07;;;;;;;0.37;0.37;;;;;;;3.39;67.20;98257.84;5097598;28;20044;-68
2023/12/23 08:30:37;;;;;;;0.30;0.30;;;;;;;3.39;67.84;98272.13;5097164;28;20276;-68
2023/12/23 08:33:06;;;;;;;1.15;1.15;;;;;;;3.40;67.23;98273.81;5097157;28;20040;-67
2023/12/23 08:35:35;;;;;;;0.40;0.40;;;;;;;3.41;67.71;98264.56;5097361;28;20130;-68
2023/12/23 08:38:10;;;;;;;0.40;0.40;;;;;;;3.42;67.57;98277.19;5097562;28;20125;-68
2023/12/23 08:40:39;;;;;;;0.45;0.45;;;;;;;3.42;67.36;98287.25;5097035;28;20131;-68
2023/12/23 08:43:09;;;;;;;0.30;0.30;;;;;;;3.43;68.06;98271.31;5096881;28;20040;-68
2023/12/23 08:45:40;;;;;;;0.63;0.63;;;;;;;3.41;67.90;98275.47;5097012;28;20048;-68
2023/12/23 08:48:09;;;;;;;0.32;0.32;;;;;;;3.41;68.11;98272.97;5097129;28;20131;-67
2023/12/23 08:50:38;;;;;;;0.40;0.40;;;;;;;3.39;68.21;98260.34;5097359;28;20044;-67
2023/12/23 08:53:07;;;;;;;1.80;1.70;;;;;;;3.41;67.89;98275.47;5095610;28;20040;-67
2023/12/23 08:55:36;;;;;;;0.52;0.52;;;;;;;3.41;68.28;98279.72;5096967;28;20044;-67
2023/12/23 08:58:05;;;;;;;0.43;0.43;;;;;;;3.38;68.26;98285.56;5096727;28;20033;-67
2023/12/23 09:00:35;;;;;;;0.43;0.43;;;;;;;3.38;67.56;98276.31;5096555;28;20592;-67
2023/12/23 09:03:06;;;;;;;0.65;0.65;;;;;;;3.38;67.67;98260.38;5096966;28;20093;-67
2023/12/23 09:05:35;;;;;;;0.30;0.30;;;;;;;3.38;68.29;98250.28;5096568;28;20059;-67
2023/12/23 09:08:04;;;;;;;0.35;0.35;;;;;;;3.40;68.15;98258.69;5096410;28;20062;-67
2023/12/23 09:10:33;;;;;;;0.40;0.40;;;;;;;3.40;68.50;98258.69;5096391;28;20052;-67
2023/12/23 09:13:03;;;;;;;0.40;0.40;;;;;;;3.36;67.98;98256.97;5096599;28;20561;-67
2023/12/23 09:15:32;;;;;;;;;;;;;;;3.40;68.13;98263.72;5095913;28;20044;-67
2023/12/23 09:18:01;;;;;;;0.40;0.40;;;;;;;3.40;68.75;98283.91;5096373;28;19919;-67
2023/12/23 09:20:32;;;;;;;0.35;0.35;;;;;;;3.37;68.86;98283.88;5096293;28;20051;-67
2023/12/23 09:23:01;;;;;;;0.40;0.40;;;;;;;3.39;68.29;98289.75;5095771;28;20052;-66
2023/12/23 09:25:30;;;;;;;0.50;0.50;;;;;;;3.36;68.53;98287.22;5096413;28;20048;-67
2023/12/23 09:27:58;;;;;;;0.43;0.43;;;;;;;3.36;68.13;98292.25;5096897;28;20067;-67
2023/12/23 09:30:27;;;;;;;0.30;0.30;;;;;;;3.36;67.95;98302.34;5096338;28;20033;-67
2023/12/23 09:32:56;;;;;;;0.20;0.20;;;;;;;3.37;68.32;98304.88;5096323;28;20048;-67
2023/12/23 09:35:25;;;;;;;0.30;0.30;;;;;;;3.36;68.30;98302.34;5096486;28;20681;-66
2023/12/23 09:37:56;;;;;;;0.40;0.40;;;;;;;3.38;68.62;98300.69;5096286;28;20032;-66
2023/12/23 09:40:25;;;;;;;0.32;0.32;;;;;;;3.37;68.50;98288.91;5095949;28;20187;-66
2023/12/23 09:42:54;;;;;;;0.80;0.80;;;;;;;3.35;67.89;98288.91;5096149;28;20036;-67
2023/12/23 09:45:25;;;;;;;0.30;0.30;;;;;;;3.36;68.33;98293.09;5094698;28;20044;-66
2023/12/23 09:47:54;;;;;;;0.50;0.50;;;;;;;3.38;69.17;98293.94;5094593;28;20067;-67
2023/12/23 09:50:23;;;;;;;;;;;;;;;3.40;68.21;98288.94;5096110;28;20101;-66
2023/12/23 09:52:53;;;;;;;0.50;0.50;;;;;;;3.41;69.27;98274.66;5095804;28;19927;-66
2023/12/23 09:55:25;;;;;;;0.50;0.50;;;;;;;3.42;68.82;98269.63;5095940;28;20445;-68
2023/12/23 09:57:54;;;;;;;0.30;0.30;;;;;;;3.42;69.47;98269.63;5095512;28;20044;-67
2023/12/23 10:00:24;;;;;;;0.50;0.50;;;;;;;3.39;68.87;98267.06;5094123;28;20059;-68
2023/12/23 10:02:53;;;;;;;0.40;0.40;;;;;;;3.42;69.33;98267.09;5095560;28;20079;-67
2023/12/23 10:05:22;;;;;;;0.50;0.50;;;;;;;3.43;68.96;98258.72;5095633;28;20040;-67
2023/12/23 10:07:56;;;;;;;3.42;1.27;;;;;;;3.34;68.97;98244.38;5095374;28;20050;-67
2023/12/23 10:10:27;;;;;;;0.60;0.60;;;;;;;3.41;68.82;98250.28;5095676;28;20040;-67
2023/12/23 10:12:55;;;;;;;0.70;0.70;;;;;;;3.41;68.99;98252.78;5095817;28;20048;-67
2023/12/23 10:15:24;;;;;;;0.50;0.50;;;;;;;3.43;68.66;98253.66;5095398;28;20036;-67
2023/12/23 10:17:54;;;;;;;0.60;0.60;;;;;;;3.44;68.95;98242.72;5094217;28;20072;-68
2023/12/23 10:20:23;;;;;;;1.33;1.10;;;;;;;3.42;68.82;98246.91;5095265;28;20127;-67
2023/12/23 10:22:51;;;;;;;0.40;0.40;;;;;;;3.41;68.90;98244.41;5095417;28;20051;-68
2023/12/23 10:25:21;;;;;;;0.60;0.60;;;;;;;3.43;68.98;98251.16;5094300;28;20118;-67
2023/12/23 10:27:55;;;;;;;0.40;0.40;;;;;;;3.46;68.93;98246.09;5095374;28;20070;-67
2023/12/23 10:30:25;;;;;;;0.30;0.30;;;;;;;3.51;68.71;98236.00;5095108;28;20066;-67
2023/12/23 10:32:57;;;;;;;0.70;0.70;;;;;;;3.51;68.40;98226.78;5094952;28;20058;-67
2023/12/23 10:35:28;;;;;;;0.73;0.70;;;;;;;3.52;68.12;98222.59;5094334;28;20532;-67
2023/12/23 10:38:03;;;;;;;0.77;0.77;;;;;;;3.52;68.52;98232.66;5094751;28;20075;-68
2023/12/23 10:40:32;;;;;;;1.63;1.50;;;;;;;3.52;67.75;98238.56;5094847;28;20071;-68
2023/12/23 10:43:04;;;;;;;1.63;1.52;;;;;;;3.48;67.58;98239.38;5095122;28;20060;-67
2023/12/23 10:45:33;;;;;;;0.60;0.60;;;;;;;3.51;67.62;98241.91;5094753;28;20040;-67
2023/12/23 10:48:06;;;;;;;0.50;0.50;;;;;;;3.51;67.80;98241.06;5095316;28;20067;-67
2023/12/23 10:50:37;;;;;;;0.40;0.40;;;;;;;3.49;67.97;98238.53;5094816;28;20384;-68
2023/12/23 10:53:09;;;;;;;0.20;0.20;;;;;;;3.50;67.84;98240.25;5095239;28;20047;-67
2023/12/23 10:55:39;;;;;;;0.40;0.40;;;;;;;3.44;67.77;98235.16;5094549;28;20048;-67
2023/12/23 10:58:13;;;;;;;0.40;0.40;;;;;;;3.41;67.32;98235.13;5094517;28;20093;-67
2023/12/23 11:00:42;;;;;;;0.40;0.40;;;;;;;3.41;67.76;98239.38;5094271;28;20063;-67
2023/12/23 11:03:14;;;;;;;0.52;0.52;;;;;;;3.29;68.76;98240.13;5094688;28;20036;-67
2023/12/23 11:05:44;;;;;;;0.40;0.40;;;;;;;3.24;68.69;98236.75;5094712;28;20040;-68
2023/12/23 11:08:19;;;;;;;0.60;0.60;;;;;;;3.17;69.33;98235.03;5094225;28;20165;-67
2023/12/23 11:10:49;;;;;;;0.40;0.40;;;;;;;3.10;70.43;98233.31;5093118;28;20040;-67
2023/12/23 11:13:20;;;;;;;0.43;0.43;;;;;;;3.06;71.05;98231.63;5095183;28;20052;-67
2023/12/23 11:15:49;;;;;;;0.50;0.50;;;;;;;2.88;71.33;98206.34;5094426;28;20040;-67
2023/12/23 11:18:18;;;;;;;0.57;0.57;;;;;;;2.97;72.00;98221.50;5094182;28;20502;-67
2023/12/23 11:20:49;;;;;;;0.50;0.50;;;;;;;2.94;72.69;98213.91;5094085;28;20040;-67
2023/12/23 11:23:31;;;;;;;0.50;0.50;;;;;;;2.80;72.89;98213.84;5093250;28;20044;-67
2023/12/23 11:26:00;;;;;;;0.30;0.30;;;;;;;2.71;73.82;98213.78;5094392;28;20562;-67
2023/12/23 11:28:33;;;;;;;0.40;0.40;;;;;;;2.66;74.99;98216.25;5094112;28;20101;-67
2023/12/23 11:31:04;;;;;;;0.30;0.30;;;;;;;2.53;76.03;98206.94;5094288;28;20074;-67
2023/12/23 11:33:36;;;;;;;0.40;0.40;;;;;;;2.43;76.33;98201.81;5093945;28;20093;-67
2023/12/23 11:36:07;;;;;;;1.40;1.33;;;;;;;2.35;77.53;98201.75;5094199;28;20443;-67
2023/12/23 11:38:48;;;;;;;0.50;0.50;;;;;;;2.32;77.84;98204.28;5093928;28;20054;-67
2023/12/23 11:41:17;;;;;;;0.40;0.40;;;;;;;2.25;78.15;98197.50;5094192;28;20134;-67
2023/12/23 11:43:49;;;;;;;;;;;;;;;2.21;79.35;98190.75;5094215;28;20040;-67
2023/12/23 11:46:20;;;;;;;0.40;0.40;;;;;;;2.20;80.32;98194.13;5093886;28;19920;-67
2023/12/23 11:48:49;;;;;;;0.40;0.40;;;;;;;2.14;80.11;98178.09;5093705;28;20048;-67
2023/12/23 11:51:18;;;;;;;0.50;0.50;;;;;;;2.05;80.47;98178.88;5094040;28;20123;-67
2023/12/23 11:53:47;;;;;;;0.50;0.50;;;;;;;1.97;81.92;98165.38;5092635;28;20044;-67